Αναφορές Αεροδρομίων

 

KSJC - San Jose, California, USA
Distance from station: ΒΑ 14km
Ενημερώθηκε: 22/02/2020 01:53
Σχεδόν νεφελώδης
Σχεδόν νεφελώδης
 Ανεμος από ΒΒΔ
Ανεμος: ΒΒΔ 15 km/h
Θερμοκρασία: 19°C
Σημείο Δρόσου: 4°C
Υγρασία: 37%
Βαρόμετρο: 1014.2 hPa
Clouds: Σχεδόν νεφελώδης
Visibility: 16 km
Cloud details: Few Clouds 1829 m
Μερικώς νεφελώδης 2438 m
Σχεδόν νεφελώδης 3658 m
2020/02/21 23:53 KSJC 212353Z 34008KT 10SM FEW060 SCT080 BKN120 19/04 A2995 RMK AO2 SLP141 T01890044 10194 20128 56028
KNUQ - Moffett Nas/Mtn, California, USA
Distance from station: Β 14km
Ενημερώθηκε: 21/11/2019 18:56
NOT Current

 
Βαρόμετρο: 1011.2 hPa
2019/11/21 16:56 KNUQ 211656Z AUTO A2986 RMK AO2 SLP116 PWINO $
 
KPAO - Palo Alto, California, USA
Distance from station: ΒΒΔ 23km
Ενημερώθηκε: 22/02/2020 01:47
Σχεδόν νεφελώδης
Σχεδόν νεφελώδης
 Ανεμος από ΒΒΔ
Ανεμος: ΒΒΔ 9 km/h
Θερμοκρασία: 21°C
Σημείο Δρόσου: 5°C
Υγρασία: 35%
Βαρόμετρο: 1014.9 hPa
Clouds: Σχεδόν νεφελώδης
Visibility: 16 km
Cloud details: Σχεδόν νεφελώδης 2438 m
2020/02/21 23:47 KPAO 212347Z 34005KT 10SM BKN080 21/05 A2997
KRHV - San Jose/Reid, California, USA
Distance from station: ΑΒΑ 19km
Ενημερώθηκε: 22/02/2020 02:47
Σχεδόν νεφελώδης
Σχεδόν νεφελώδης
 Ανεμος από calm
Ανεμος: Απνοια
Θερμοκρασία: 18°C
Σημείο Δρόσου: 5°C
Υγρασία: 43%
Βαρόμετρο: 1014.9 hPa
Clouds: Σχεδόν νεφελώδης
Visibility: 16 km
Cloud details: Σχεδόν νεφελώδης 3658 m
2020/02/22 00:47 KRHV 220047Z 00000KT 10SM BKN120 18/05 A2997
 
KOAK - Oakland, California, USA
Distance from station: ΒΒΔ 50km
Ενημερώθηκε: 22/02/2020 01:53
Σχεδόν νεφελώδης
Σχεδόν νεφελώδης
 Ανεμος από ΒΔ
Ανεμος: ΒΔ 15 km/h
Θερμοκρασία: 22°C
Σημείο Δρόσου: 7°C
Υγρασία: 38%
Βαρόμετρο: 1014.9 hPa
Clouds: Σχεδόν νεφελώδης
Visibility: 16 km
Cloud details: Few Clouds 1067 m
Μερικώς νεφελώδης 4877 m
Σχεδόν νεφελώδης 7620 m
2020/02/21 23:53 KOAK 212353Z 31008KT 10SM FEW035 SCT160 BKN250 22/07 A2997 RMK AO2 SLP148 T02170067 10217 20144 56027
KSQL - San Carlos Airpo, California, USA
Distance from station: ΒΔ 34km
Ενημερώθηκε: 22/02/2020 01:52
Σχεδόν νεφελώδης
Σχεδόν νεφελώδης
 Ανεμος από ΔΒΔ
Ανεμος: ΔΒΔ 9 km/h
Θερμοκρασία: 22°C
Σημείο Δρόσου: 0°C
Υγρασία: 23%
Βαρόμετρο: 1014.9 hPa
Clouds: Σχεδόν νεφελώδης
Visibility: 16 km
Cloud details: Μερικώς νεφελώδης 4572 m
Σχεδόν νεφελώδης 5486 m
2020/02/21 23:52 KSQL 212352Z 30005KT 10SM SCT150 BKN180 22/00 A2997
 
KSFO - San Francisco, California, USA
Distance from station: ΒΔ 49km
Ενημερώθηκε: 22/02/2020 01:56
Σχεδόν νεφελώδης
Σχεδόν νεφελώδης
 Ανεμος από calm
Ανεμος: Απνοια
Θερμοκρασία: 19°C
Σημείο Δρόσου: 2°C
Υγρασία: 32%
Βαρόμετρο: 1014.6 hPa
Clouds: Σχεδόν νεφελώδης
Visibility: 16 km
Cloud details: Σχεδόν νεφελώδης 4572 m
Σχεδόν νεφελώδης 5486 m
2020/02/21 23:56 KSFO 212356Z 00000KT 10SM BKN150 BKN180 19/02 A2996 RMK AO2 SLP146 T01940022 10211 20139 56027
KE16 - San Martin, California, USA
Distance from station: ΑΝΑ 43km
Ενημερώθηκε: 14/11/2019 11:35
NOT Current
Συννεφιά
Συννεφιά
 Ανεμος από ΝΑ
Ανεμος: ΝΑ 11 km/h
Θερμοκρασία: 12°C
Σημείο Δρόσου: 10°C
Υγρασία: 88%
Βαρόμετρο: 1017.6 hPa
Clouds: Συννεφιά
Visibility: 16 km
Cloud details: Συννεφιά 427 m
2019/11/14 09:35 KE16 140935Z AUTO 13006KT 10SM OVC014 12/10 A3005 RMK AO2
 
KWVI - Watsonville, California, USA
Distance from station: ΝΝΑ 44km
Ενημερώθηκε: 22/02/2020 01:53
Αίθριος
Αίθριος
 Ανεμος από ΑΝΑ
Ανεμος: ΑΝΑ 11 km/h
Θερμοκρασία: 21°C
Σημείο Δρόσου: 7°C
Υγρασία: 40%
Βαρόμετρο: 1013.9 hPa
Clouds: Αίθριος
Visibility: 16 km
2020/02/21 23:53 KWVI 212353Z AUTO 11006KT 10SM CLR 21/07 A2994 RMK AO2 SLP139 T02060067 10217 20189 56024
KHAF - Half Moon Bay, California, USA
Distance from station: ΔΒΔ 50km
Ενημερώθηκε: 22/02/2020 02:35

 
2020/02/22 00:35 KHAF 220035Z AUTO RMK AO2 PWINO
 
KHWD - Hayward, California, USA
Distance from station: Β 44km
Ενημερώθηκε: 22/02/2020 01:54
Αίθριος
Αίθριος
 Ανεμος από calm
Ανεμος: Απνοια
Θερμοκρασία: 22°C
Σημείο Δρόσου: 6°C
Υγρασία: 36%
Βαρόμετρο: 1014.2 hPa
Clouds: Αίθριος
Visibility: 16 km
2020/02/21 23:54 KHWD 212354Z 00000KT 10SM CLR 22/06 A2995 RMK AO2 SLP153 T02220061 10222 20139 56027
KLVK - Livermore, California, USA
Distance from station: ΒΒΑ 51km
Ενημερώθηκε: 22/02/2020 01:53
Αίθριος
Αίθριος
 Ανεμος από ΒΑ
Ανεμος: ΒΑ 13 km/h
Θερμοκρασία: 20°C
Σημείο Δρόσου: 1°C
Υγρασία: 28%
Βαρόμετρο: 1014.9 hPa
Clouds: Αίθριος
Visibility: 16 km
2020/02/21 23:53 KLVK 212353Z 05007KT 10SM CLR 20/01 A2997 RMK AO2 SLP145 T02000006 10217 20117 56024